KRVS

Richard Lloyd Jones Jr Airport

Tulsa, Oklahoma, USA
METAR KRVS 182153Z 16011G19KT 10SM FEW042 FEW055 33/20 A2995 RMK AO2 SLP145 T03280200
Observed Flight Rules
Jun-18 @ 21:53 UTC (56 minutes ago) Visual Flight Rules
Wind Visibility Clouds
160° at 11 knots
 Gusting to 19 knots
10 miles
  • Few at 4,200' AGL
  • Few at 5,500' AGL
Temperatures Readings
Current 33°C / 91°F
Dewpoint 20°C / 68°F
Humidity 46%
Altimeter 29.95" Hg
Pressure 1014.5 hPa
Elevation 200
METAR KRVS 182153Z 16011G19KT 10SM FEW042 FEW055 33/20 A2995 RMK AO2 SLP145 T03280200
Observed Flight Rules
Jun-18 @ 21:53 UTC
(56 minutes ago)
VFR
Wind Visibility
160° at 11 knots
 Gusting to 19 knots
10 miles
Clouds
  • Few at 4,200' AGL
  • Few at 5,500' AGL
Temperature Dewpoint
33°C / 91°F 20°C / 68°F
Humidity Altimeter Pressure
46% 29.95" Hg 1014.5 hPa